PWSweather.com
Personal Weather Stations
Station Observations
K4FB1
Clubhouse Heritage, Lakeland, FL 33812

Clubhouse HeritageLakeland, FL 33812

Lat: 27.969224, Lon: -81.897769

Elevation: 145

Station Type: Davis Vantage Pro2

http://www.ClubhouseWX.com

High Low Average
Temperature 73.5°F23.1°C 56.1°F13.4°C 63.0°F17.2°C
Dew Point 60.6°F15.9°C 24.1°F-4.4°C 46.9°F8.3°C
Winds 6.0 mph 9.7 kmh 1.0 mph 1.6 kmh 4.0 mph ENE6.4 kmh ENE
Wind Gusts 15.0 mph24.1 kmh 4.0 mph6.4 kmh 9.0 mph14.5 kmh
Humidity 72% 27% 58%
Pressure 30.15 in1021.0 mb 30.04 in1017.3 mb -
Precipitation 0.01 in0.3 mm - -
Hour Temp Dew Point Humidity Winds Wind Gusts Pressure Precip Precip Rate Daily Precip Total
12:00 AM 60.8°F16.0°C 18.2°F-7.7°C 19% 3.0 mph NNE4.8 kmh NNE 7.0 mph11.3 kmh 30.09 in1019.0 mb 0.00 in0.0 mm 0.00 in0.0 mm 0.00 in0.0 mm
12:05 AM 60.7°F15.9°C 16.9°F-8.4°C 18% 3.0 mph NNE4.8 kmh NNE 6.0 mph9.7 kmh 30.09 in1019.0 mb 0.00 in0.0 mm 0.00 in0.0 mm 0.00 in0.0 mm
12:10 AM 60.7°F15.9°C 16.9°F-8.4°C 18% 3.0 mph N4.8 kmh N 6.0 mph9.7 kmh 30.10 in1019.3 mb 0.00 in0.0 mm 0.00 in0.0 mm 0.00 in0.0 mm
12:15 AM 60.6°F15.9°C 19.3°F-7.1°C 20% 3.0 mph N4.8 kmh N 6.0 mph9.7 kmh 30.10 in1019.3 mb 0.00 in0.0 mm 0.00 in0.0 mm 0.00 in0.0 mm
12:20 AM 60.4°F15.8°C 21.3°F-5.9°C 22% 3.0 mph NNE4.8 kmh NNE 6.0 mph9.7 kmh 30.09 in1019.0 mb 0.00 in0.0 mm 0.00 in0.0 mm 0.00 in0.0 mm
12:25 AM 60.4°F15.8°C 22.4°F-5.3°C 23% 2.0 mph N3.2 kmh N 6.0 mph9.7 kmh 30.10 in1019.3 mb 0.00 in0.0 mm 0.00 in0.0 mm 0.00 in0.0 mm
12:30 AM 60.2°F15.7°C 23.2°F-4.9°C 24% 2.0 mph N3.2 kmh N 6.0 mph9.7 kmh 30.09 in1019.0 mb 0.00 in0.0 mm 0.00 in0.0 mm 0.00 in0.0 mm
12:35 AM 60.2°F15.7°C 21.2°F-6.0°C 22% 2.0 mph N3.2 kmh N 6.0 mph9.7 kmh 30.09 in1019.0 mb 0.00 in0.0 mm 0.00 in0.0 mm 0.00 in0.0 mm
12:40 AM 60.0°F15.6°C 25.0°F-3.9°C 26% 2.0 mph NE3.2 kmh NE 9.0 mph14.5 kmh 30.08 in1018.6 mb 0.00 in0.0 mm 0.00 in0.0 mm 0.00 in0.0 mm
12:45 AM 60.0°F15.6°C 25.9°F-3.4°C 27% 2.0 mph NE3.2 kmh NE 9.0 mph14.5 kmh 30.08 in1018.6 mb 0.00 in0.0 mm 0.00 in0.0 mm 0.00 in0.0 mm
12:50 AM 59.9°F15.5°C 28.4°F-2.0°C 30% 3.0 mph NE4.8 kmh NE 8.0 mph12.9 kmh 30.08 in1018.6 mb 0.00 in0.0 mm 0.00 in0.0 mm 0.00 in0.0 mm
12:55 AM 59.8°F15.4°C 28.3°F-2.1°C 30% 3.0 mph NE4.8 kmh NE 8.0 mph12.9 kmh 30.09 in1019.0 mb 0.00 in0.0 mm 0.00 in0.0 mm 0.00 in0.0 mm
01:00 AM 59.8°F15.4°C 31.3°F-0.4°C 34% 3.0 mph NE4.8 kmh NE 7.0 mph11.3 kmh 30.09 in1019.0 mb 0.00 in0.0 mm 0.00 in0.0 mm 0.00 in0.0 mm
01:05 AM 59.7°F15.4°C 30.5°F-0.8°C 33% 3.0 mph NE4.8 kmh NE 7.0 mph11.3 kmh 30.10 in1019.3 mb 0.00 in0.0 mm 0.00 in0.0 mm 0.00 in0.0 mm
01:10 AM 59.7°F15.4°C 28.2°F-2.1°C 30% 3.0 mph NNE4.8 kmh NNE 5.0 mph8.0 kmh 30.09 in1019.0 mb 0.00 in0.0 mm 0.00 in0.0 mm 0.00 in0.0 mm
01:15 AM 59.6°F15.3°C 28.1°F-2.2°C 30% 3.0 mph N4.8 kmh N 6.0 mph9.7 kmh 30.10 in1019.3 mb 0.00 in0.0 mm 0.00 in0.0 mm 0.00 in0.0 mm
01:20 AM 59.6°F15.3°C 27.3°F-2.6°C 29% 3.0 mph N4.8 kmh N 7.0 mph11.3 kmh 30.10 in1019.3 mb 0.00 in0.0 mm 0.00 in0.0 mm 0.00 in0.0 mm
01:25 AM 59.6°F15.3°C 26.4°F-3.1°C 28% 3.0 mph N4.8 kmh N 7.0 mph11.3 kmh 30.10 in1019.3 mb 0.00 in0.0 mm 0.00 in0.0 mm 0.00 in0.0 mm
01:30 AM 59.6°F15.3°C 28.1°F-2.2°C 30% 3.0 mph N4.8 kmh N 8.0 mph12.9 kmh 30.10 in1019.3 mb 0.00 in0.0 mm 0.00 in0.0 mm 0.00 in0.0 mm
01:35 AM 59.6°F15.3°C 28.9°F-1.7°C 31% 4.0 mph N6.4 kmh N 10.0 mph16.1 kmh 30.09 in1019.0 mb 0.00 in0.0 mm 0.00 in0.0 mm 0.00 in0.0 mm
01:40 AM 59.5°F15.3°C 31.1°F-0.5°C 34% 4.0 mph NNE6.4 kmh NNE 10.0 mph16.1 kmh 30.09 in1019.0 mb 0.00 in0.0 mm 0.00 in0.0 mm 0.00 in0.0 mm
01:45 AM 59.5°F15.3°C 32.5°F0.3°C 36% 4.0 mph NNE6.4 kmh NNE 10.0 mph16.1 kmh 30.09 in1019.0 mb 0.00 in0.0 mm 0.00 in0.0 mm 0.00 in0.0 mm
01:50 AM 59.4°F15.2°C 33.1°F0.6°C 37% 4.0 mph N6.4 kmh N 8.0 mph12.9 kmh 30.09 in1019.0 mb 0.00 in0.0 mm 0.00 in0.0 mm 0.00 in0.0 mm
01:55 AM 59.4°F15.2°C 33.1°F0.6°C 37% 4.0 mph NNE6.4 kmh NNE 8.0 mph12.9 kmh 30.09 in1019.0 mb 0.00 in0.0 mm 0.00 in0.0 mm 0.00 in0.0 mm
02:00 AM 59.3°F15.2°C 31.6°F-0.2°C 35% 4.0 mph NNE6.4 kmh NNE 8.0 mph12.9 kmh 30.09 in1019.0 mb 0.00 in0.0 mm 0.00 in0.0 mm 0.00 in0.0 mm
02:05 AM 59.3°F15.2°C 32.3°F0.2°C 36% 4.0 mph N6.4 kmh N 9.0 mph14.5 kmh 30.09 in1019.0 mb 0.00 in0.0 mm 0.00 in0.0 mm 0.00 in0.0 mm
02:10 AM 59.3°F15.2°C 36.8°F2.7°C 43% 4.0 mph N6.4 kmh N 11.0 mph17.7 kmh 30.09 in1019.0 mb 0.00 in0.0 mm 0.00 in0.0 mm 0.00 in0.0 mm
02:15 AM 59.3°F15.2°C 37.9°F3.3°C 45% 4.0 mph NNE6.4 kmh NNE 11.0 mph17.7 kmh 30.09 in1019.0 mb 0.00 in0.0 mm 0.00 in0.0 mm 0.00 in0.0 mm
02:20 AM 59.3°F15.2°C 38.5°F3.6°C 46% 4.0 mph NNE6.4 kmh NNE 10.0 mph16.1 kmh 30.08 in1018.6 mb 0.00 in0.0 mm 0.00 in0.0 mm 0.00 in0.0 mm
02:25 AM 59.3°F15.2°C 37.9°F3.3°C 45% 4.0 mph NNE6.4 kmh NNE 8.0 mph12.9 kmh 30.08 in1018.6 mb 0.00 in0.0 mm 0.00 in0.0 mm 0.00 in0.0 mm
02:30 AM 59.2°F15.1°C 35.5°F1.9°C 41% 3.0 mph N4.8 kmh N 6.0 mph9.7 kmh 30.08 in1018.6 mb 0.00 in0.0 mm 0.00 in0.0 mm 0.00 in0.0 mm
02:35 AM 59.1°F15.1°C 32.8°F0.4°C 37% 3.0 mph NNE4.8 kmh NNE 6.0 mph9.7 kmh 30.08 in1018.6 mb 0.00 in0.0 mm 0.00 in0.0 mm 0.00 in0.0 mm
02:40 AM 59.0°F15.0°C 31.4°F-0.3°C 35% 3.0 mph NNE4.8 kmh NNE 7.0 mph11.3 kmh 30.08 in1018.6 mb 0.00 in0.0 mm 0.00 in0.0 mm 0.00 in0.0 mm
02:45 AM 58.9°F14.9°C 31.3°F-0.4°C 35% 3.0 mph N4.8 kmh N 8.0 mph12.9 kmh 30.09 in1019.0 mb 0.00 in0.0 mm 0.00 in0.0 mm 0.00 in0.0 mm
02:50 AM 58.8°F14.9°C 30.5°F-0.8°C 34% 3.0 mph N4.8 kmh N 8.0 mph12.9 kmh 30.09 in1019.0 mb 0.00 in0.0 mm 0.00 in0.0 mm 0.00 in0.0 mm
02:55 AM 58.7°F14.8°C 31.1°F-0.5°C 35% 4.0 mph N6.4 kmh N 9.0 mph14.5 kmh 30.09 in1019.0 mb 0.00 in0.0 mm 0.00 in0.0 mm 0.00 in0.0 mm
03:00 AM 58.7°F14.8°C 29.6°F-1.3°C 33% 4.0 mph N6.4 kmh N 10.0 mph16.1 kmh 30.08 in1018.6 mb 0.00 in0.0 mm 0.00 in0.0 mm 0.00 in0.0 mm
03:05 AM 58.7°F14.8°C 31.1°F-0.5°C 35% 4.0 mph N6.4 kmh N 10.0 mph16.1 kmh 30.08 in1018.6 mb 0.00 in0.0 mm 0.00 in0.0 mm 0.00 in0.0 mm
03:10 AM 58.6°F14.8°C 30.3°F-0.9°C 34% 4.0 mph N6.4 kmh N 8.0 mph12.9 kmh 30.08 in1018.6 mb 0.00 in0.0 mm 0.00 in0.0 mm 0.00 in0.0 mm
03:15 AM 58.5°F14.7°C 32.3°F0.2°C 37% 4.0 mph N6.4 kmh N 9.0 mph14.5 kmh 30.08 in1018.6 mb 0.00 in0.0 mm 0.00 in0.0 mm 0.00 in0.0 mm
03:20 AM 58.5°F14.7°C 33.0°F0.6°C 38% 4.0 mph N6.4 kmh N 9.0 mph14.5 kmh 30.08 in1018.6 mb 0.00 in0.0 mm 0.00 in0.0 mm 0.00 in0.0 mm
03:25 AM 58.4°F14.7°C 35.4°F1.9°C 42% 5.0 mph N8.0 kmh N 10.0 mph16.1 kmh 30.08 in1018.6 mb 0.00 in0.0 mm 0.00 in0.0 mm 0.00 in0.0 mm
03:30 AM 58.4°F14.7°C 35.4°F1.9°C 42% 5.0 mph N8.0 kmh N 10.0 mph16.1 kmh 30.08 in1018.6 mb 0.00 in0.0 mm 0.00 in0.0 mm 0.00 in0.0 mm
03:35 AM 58.4°F14.7°C 36.0°F2.2°C 43% 4.0 mph N6.4 kmh N 9.0 mph14.5 kmh 30.08 in1018.6 mb 0.00 in0.0 mm 0.00 in0.0 mm 0.00 in0.0 mm
03:40 AM 58.3°F14.6°C 35.9°F2.2°C 43% 3.0 mph NNE4.8 kmh NNE 8.0 mph12.9 kmh 30.07 in1018.3 mb 0.00 in0.0 mm 0.00 in0.0 mm 0.00 in0.0 mm
03:45 AM 58.2°F14.6°C 35.8°F2.1°C 43% 2.0 mph NE3.2 kmh NE 6.0 mph9.7 kmh 30.06 in1017.9 mb 0.00 in0.0 mm 0.00 in0.0 mm 0.00 in0.0 mm
03:50 AM 58.1°F14.5°C 35.1°F1.7°C 42% 3.0 mph NE4.8 kmh NE 6.0 mph9.7 kmh 30.06 in1017.9 mb 0.00 in0.0 mm 0.00 in0.0 mm 0.00 in0.0 mm
03:55 AM 58.0°F14.4°C 35.0°F1.7°C 42% 2.0 mph NE3.2 kmh NE 6.0 mph9.7 kmh 30.05 in1017.6 mb 0.00 in0.0 mm 0.00 in0.0 mm 0.00 in0.0 mm
04:00 AM 57.9°F14.4°C 33.7°F0.9°C 40% 2.0 mph NE3.2 kmh NE 6.0 mph9.7 kmh 30.05 in1017.6 mb 0.00 in0.0 mm 0.00 in0.0 mm 0.00 in0.0 mm
04:05 AM 57.8°F14.3°C 33.0°F0.6°C 39% 2.0 mph NE3.2 kmh NE 6.0 mph9.7 kmh 30.05 in1017.6 mb 0.00 in0.0 mm 0.00 in0.0 mm 0.00 in0.0 mm
04:10 AM 57.8°F14.3°C 32.3°F0.2°C 38% 2.0 mph NNE3.2 kmh NNE 5.0 mph8.0 kmh 30.06 in1017.9 mb 0.00 in0.0 mm 0.00 in0.0 mm 0.00 in0.0 mm
04:15 AM 57.7°F14.3°C 30.9°F-0.6°C 36% 3.0 mph NNE4.8 kmh NNE 6.0 mph9.7 kmh 30.06 in1017.9 mb 0.00 in0.0 mm 0.00 in0.0 mm 0.00 in0.0 mm
04:20 AM 57.7°F14.3°C 30.9°F-0.6°C 36% 3.0 mph N4.8 kmh N 7.0 mph11.3 kmh 30.05 in1017.6 mb 0.00 in0.0 mm 0.00 in0.0 mm 0.00 in0.0 mm
04:25 AM 57.7°F14.3°C 30.9°F-0.6°C 36% 4.0 mph N6.4 kmh N 7.0 mph11.3 kmh 30.05 in1017.6 mb 0.00 in0.0 mm 0.00 in0.0 mm 0.00 in0.0 mm
04:30 AM 57.7°F14.3°C 30.9°F-0.6°C 36% 3.0 mph N4.8 kmh N 7.0 mph11.3 kmh 30.05 in1017.6 mb 0.00 in0.0 mm 0.00 in0.0 mm 0.00 in0.0 mm
04:35 AM 57.7°F14.3°C 29.5°F-1.4°C 34% 3.0 mph NNE4.8 kmh NNE 6.0 mph9.7 kmh 30.04 in1017.3 mb 0.00 in0.0 mm 0.00 in0.0 mm 0.00 in0.0 mm
04:40 AM 57.7°F14.3°C 28.8°F-1.8°C 33% 3.0 mph NNE4.8 kmh NNE 6.0 mph9.7 kmh 30.04 in1017.3 mb 0.00 in0.0 mm 0.00 in0.0 mm 0.00 in0.0 mm
04:45 AM 57.6°F14.2°C 28.7°F-1.8°C 33% 2.0 mph NNE3.2 kmh NNE 7.0 mph11.3 kmh 30.04 in1017.3 mb 0.00 in0.0 mm 0.00 in0.0 mm 0.00 in0.0 mm
04:50 AM 57.6°F14.2°C 27.9°F-2.3°C 32% 3.0 mph NNE4.8 kmh NNE 9.0 mph14.5 kmh 30.04 in1017.3 mb 0.00 in0.0 mm 0.00 in0.0 mm 0.00 in0.0 mm
04:55 AM 57.7°F14.3°C 26.4°F-3.1°C 30% 3.0 mph NNE4.8 kmh NNE 9.0 mph14.5 kmh 30.05 in1017.6 mb 0.00 in0.0 mm 0.00 in0.0 mm 0.00 in0.0 mm
05:00 AM 57.8°F14.3°C 25.7°F-3.5°C 29% 3.0 mph N4.8 kmh N 7.0 mph11.3 kmh 30.05 in1017.6 mb 0.00 in0.0 mm 0.00 in0.0 mm 0.00 in0.0 mm
05:05 AM 57.9°F14.4°C 24.1°F-4.4°C 27% 3.0 mph N4.8 kmh N 7.0 mph11.3 kmh 30.05 in1017.6 mb 0.00 in0.0 mm 0.00 in0.0 mm 0.00 in0.0 mm
05:10 AM 58.0°F14.4°C 24.2°F-4.3°C 27% 3.0 mph N4.8 kmh N 7.0 mph11.3 kmh 30.06 in1017.9 mb 0.00 in0.0 mm 0.00 in0.0 mm 0.00 in0.0 mm
05:15 AM 58.1°F14.5°C 27.6°F-2.4°C 31% 3.0 mph N4.8 kmh N 8.0 mph12.9 kmh 30.05 in1017.6 mb 0.00 in0.0 mm 0.00 in0.0 mm 0.00 in0.0 mm
05:20 AM 58.1°F14.5°C 28.4°F-2.0°C 32% 4.0 mph N6.4 kmh N 8.0 mph12.9 kmh 30.05 in1017.6 mb 0.00 in0.0 mm 0.00 in0.0 mm 0.00 in0.0 mm
05:25 AM 58.1°F14.5°C 29.1°F-1.6°C 33% 4.0 mph N6.4 kmh N 9.0 mph14.5 kmh 30.05 in1017.6 mb 0.00 in0.0 mm 0.00 in0.0 mm 0.00 in0.0 mm
05:30 AM 58.1°F14.5°C 30.6°F-0.8°C 35% 4.0 mph N6.4 kmh N 12.0 mph19.3 kmh 30.05 in1017.6 mb 0.00 in0.0 mm 0.00 in0.0 mm 0.00 in0.0 mm
05:35 AM 58.2°F14.6°C 30.7°F-0.7°C 35% 4.0 mph N6.4 kmh N 12.0 mph19.3 kmh 30.05 in1017.6 mb 0.00 in0.0 mm 0.00 in0.0 mm 0.00 in0.0 mm
05:40 AM 58.2°F14.6°C 30.7°F-0.7°C 35% 3.0 mph N4.8 kmh N 7.0 mph11.3 kmh 30.05 in1017.6 mb 0.00 in0.0 mm 0.00 in0.0 mm 0.00 in0.0 mm
05:45 AM 58.2°F14.6°C 30.7°F-0.7°C 35% 3.0 mph N4.8 kmh N 7.0 mph11.3 kmh 30.04 in1017.3 mb 0.00 in0.0 mm 0.00 in0.0 mm 0.00 in0.0 mm
05:50 AM 58.2°F14.6°C 31.3°F-0.4°C 36% 3.0 mph NNE4.8 kmh NNE 6.0 mph9.7 kmh 30.04 in1017.3 mb 0.00 in0.0 mm 0.00 in0.0 mm 0.00 in0.0 mm
05:55 AM 58.2°F14.6°C 31.3°F-0.4°C 36% 3.0 mph NNE4.8 kmh NNE 7.0 mph11.3 kmh 30.04 in1017.3 mb 0.00 in0.0 mm 0.00 in0.0 mm 0.00 in0.0 mm
06:00 AM 58.2°F14.6°C 30.7°F-0.7°C 35% 3.0 mph NNE4.8 kmh NNE 7.0 mph11.3 kmh 30.04 in1017.3 mb 0.00 in0.0 mm 0.00 in0.0 mm 0.00 in0.0 mm
06:05 AM 58.2°F14.6°C 30.7°F-0.7°C 35% 3.0 mph NE4.8 kmh NE 8.0 mph12.9 kmh 30.04 in1017.3 mb 0.00 in0.0 mm 0.00 in0.0 mm 0.00 in0.0 mm
06:10 AM 58.2°F14.6°C 29.2°F-1.6°C 33% 3.0 mph NNE4.8 kmh NNE 8.0 mph12.9 kmh 30.05 in1017.6 mb 0.00 in0.0 mm 0.00 in0.0 mm 0.00 in0.0 mm
06:15 AM 58.2°F14.6°C 28.5°F-1.9°C 32% 3.0 mph N4.8 kmh N 7.0 mph11.3 kmh 30.05 in1017.6 mb 0.00 in0.0 mm 0.00 in0.0 mm 0.00 in0.0 mm
06:20 AM 58.3°F14.6°C 28.5°F-1.9°C 32% 3.0 mph N4.8 kmh N 7.0 mph11.3 kmh 30.05 in1017.6 mb 0.00 in0.0 mm 0.00 in0.0 mm 0.00 in0.0 mm
06:25 AM 58.4°F14.7°C 28.6°F-1.9°C 32% 3.0 mph N4.8 kmh N 7.0 mph11.3 kmh 30.05 in1017.6 mb 0.00 in0.0 mm 0.00 in0.0 mm 0.00 in0.0 mm
06:30 AM 58.5°F14.7°C 27.9°F-2.3°C 31% 3.0 mph N4.8 kmh N 6.0 mph9.7 kmh 30.05 in1017.6 mb 0.00 in0.0 mm 0.00 in0.0 mm 0.00 in0.0 mm
06:35 AM 58.5°F14.7°C 28.7°F-1.8°C 32% 3.0 mph N4.8 kmh N 6.0 mph9.7 kmh 30.06 in1017.9 mb 0.00 in0.0 mm 0.00 in0.0 mm 0.00 in0.0 mm
06:40 AM 58.5°F14.7°C 30.2°F-1.0°C 34% 3.0 mph NNW4.8 kmh NNW 9.0 mph14.5 kmh 30.06 in1017.9 mb 0.00 in0.0 mm 0.00 in0.0 mm 0.00 in0.0 mm
06:45 AM 58.6°F14.8°C 31.7°F-0.2°C 36% 4.0 mph NNW6.4 kmh NNW 9.0 mph14.5 kmh 30.07 in1018.3 mb 0.00 in0.0 mm 0.00 in0.0 mm 0.00 in0.0 mm
06:50 AM 58.6°F14.8°C 32.4°F0.2°C 37% 4.0 mph N6.4 kmh N 9.0 mph14.5 kmh 30.07 in1018.3 mb 0.00 in0.0 mm 0.00 in0.0 mm 0.00 in0.0 mm
06:55 AM 58.6°F14.8°C 32.4°F0.2°C 37% 3.0 mph N4.8 kmh N 6.0 mph9.7 kmh 30.07 in1018.3 mb 0.00 in0.0 mm 0.00 in0.0 mm 0.00 in0.0 mm
07:00 AM 58.7°F14.8°C 33.8°F1.0°C 39% 3.0 mph N4.8 kmh N 8.0 mph12.9 kmh 30.07 in1018.3 mb 0.00 in0.0 mm 0.00 in0.0 mm 0.00 in0.0 mm
07:05 AM 58.7°F14.8°C 34.4°F1.3°C 40% 3.0 mph NNW4.8 kmh NNW 8.0 mph12.9 kmh 30.07 in1018.3 mb 0.00 in0.0 mm 0.00 in0.0 mm 0.00 in0.0 mm
07:10 AM 58.7°F14.8°C 34.4°F1.3°C 40% 3.0 mph N4.8 kmh N 8.0 mph12.9 kmh 30.08 in1018.6 mb 0.00 in0.0 mm 0.00 in0.0 mm 0.00 in0.0 mm
07:15 AM 58.7°F14.8°C 35.7°F2.1°C 42% 3.0 mph N4.8 kmh N 8.0 mph12.9 kmh 30.07 in1018.3 mb 0.00 in0.0 mm 0.00 in0.0 mm 0.00 in0.0 mm
07:20 AM 58.7°F14.8°C 35.0°F1.7°C 41% 3.0 mph N4.8 kmh N 7.0 mph11.3 kmh 30.07 in1018.3 mb 0.00 in0.0 mm 0.00 in0.0 mm 0.00 in0.0 mm
07:25 AM 58.7°F14.8°C 36.2°F2.3°C 43% 3.0 mph NNE4.8 kmh NNE 6.0 mph9.7 kmh 30.07 in1018.3 mb 0.00 in0.0 mm 0.00 in0.0 mm 0.00 in0.0 mm
07:30 AM 58.6°F14.8°C 36.2°F2.3°C 43% 3.0 mph NNE4.8 kmh NNE 6.0 mph9.7 kmh 30.07 in1018.3 mb 0.00 in0.0 mm 0.00 in0.0 mm 0.00 in0.0 mm
07:35 AM 58.5°F14.7°C 34.9°F1.6°C 41% 2.0 mph NNE3.2 kmh NNE 5.0 mph8.0 kmh 30.07 in1018.3 mb 0.00 in0.0 mm 0.00 in0.0 mm 0.00 in0.0 mm
07:40 AM 58.5°F14.7°C 34.2°F1.2°C 40% 1.0 mph NNE1.6 kmh NNE 5.0 mph8.0 kmh 30.07 in1018.3 mb 0.00 in0.0 mm 0.00 in0.0 mm 0.00 in0.0 mm
07:45 AM 58.4°F14.7°C 32.9°F0.5°C 38% 1.0 mph NNE1.6 kmh NNE 4.0 mph6.4 kmh 30.07 in1018.3 mb 0.00 in0.0 mm 0.00 in0.0 mm 0.00 in0.0 mm
07:50 AM 58.5°F14.7°C 33.0°F0.6°C 38% 1.0 mph NNE1.6 kmh NNE 5.0 mph8.0 kmh 30.07 in1018.3 mb 0.00 in0.0 mm 0.00 in0.0 mm 0.00 in0.0 mm
07:55 AM 58.5°F14.7°C 32.3°F0.2°C 37% 1.0 mph NNE1.6 kmh NNE 5.0 mph8.0 kmh 30.07 in1018.3 mb 0.00 in0.0 mm 0.00 in0.0 mm 0.00 in0.0 mm
08:00 AM 58.6°F14.8°C 33.0°F0.6°C 38% 2.0 mph N3.2 kmh N 5.0 mph8.0 kmh 30.07 in1018.3 mb 0.00 in0.0 mm 0.00 in0.0 mm 0.00 in0.0 mm
08:05 AM 58.7°F14.8°C 34.4°F1.3°C 40% 2.0 mph N3.2 kmh N 5.0 mph8.0 kmh 30.07 in1018.3 mb 0.00 in0.0 mm 0.00 in0.0 mm 0.00 in0.0 mm
08:10 AM 58.8°F14.9°C 35.1°F1.7°C 41% 3.0 mph N4.8 kmh N 6.0 mph9.7 kmh 30.08 in1018.6 mb 0.00 in0.0 mm 0.00 in0.0 mm 0.00 in0.0 mm
08:15 AM 58.9°F14.9°C 35.8°F2.1°C 42% 2.0 mph NNE3.2 kmh NNE 6.0 mph9.7 kmh 30.08 in1018.6 mb 0.00 in0.0 mm 0.00 in0.0 mm 0.00 in0.0 mm
08:20 AM 59.0°F15.0°C 36.5°F2.5°C 43% 2.0 mph NNE3.2 kmh NNE 5.0 mph8.0 kmh 30.08 in1018.6 mb 0.00 in0.0 mm 0.00 in0.0 mm 0.00 in0.0 mm
08:25 AM 59.2°F15.1°C 36.7°F2.6°C 43% 2.0 mph N3.2 kmh N 5.0 mph8.0 kmh 30.07 in1018.3 mb 0.00 in0.0 mm 0.00 in0.0 mm 0.00 in0.0 mm
08:30 AM 59.3°F15.2°C 37.4°F3.0°C 44% 2.0 mph N3.2 kmh N 5.0 mph8.0 kmh 30.08 in1018.6 mb 0.00 in0.0 mm 0.00 in0.0 mm 0.00 in0.0 mm
08:35 AM 59.5°F15.3°C 38.1°F3.4°C 45% 3.0 mph N4.8 kmh N 5.0 mph8.0 kmh 30.08 in1018.6 mb 0.00 in0.0 mm 0.00 in0.0 mm 0.00 in0.0 mm
08:40 AM 59.6°F15.3°C 39.3°F4.1°C 47% 3.0 mph N4.8 kmh N 6.0 mph9.7 kmh 30.08 in1018.6 mb 0.00 in0.0 mm 0.00 in0.0 mm 0.00 in0.0 mm
08:45 AM 59.8°F15.4°C 39.0°F3.9°C 46% 3.0 mph NNE4.8 kmh NNE 7.0 mph11.3 kmh 30.08 in1018.6 mb 0.00 in0.0 mm 0.00 in0.0 mm 0.00 in0.0 mm
08:50 AM 60.0°F15.6°C 40.8°F4.9°C 49% 2.0 mph NNE3.2 kmh NNE 7.0 mph11.3 kmh 30.08 in1018.6 mb 0.00 in0.0 mm 0.00 in0.0 mm 0.00 in0.0 mm
08:55 AM 60.2°F15.7°C 41.0°F5.0°C 49% 2.0 mph N3.2 kmh N 6.0 mph9.7 kmh 30.09 in1019.0 mb 0.00 in0.0 mm 0.00 in0.0 mm 0.00 in0.0 mm
09:00 AM 60.4°F15.8°C 41.1°F5.1°C 49% 2.0 mph N3.2 kmh N 6.0 mph9.7 kmh 30.09 in1019.0 mb 0.00 in0.0 mm 0.00 in0.0 mm 0.00 in0.0 mm
09:05 AM 60.6°F15.9°C 42.9°F6.1°C 52% 3.0 mph N4.8 kmh N 6.0 mph9.7 kmh 30.09 in1019.0 mb 0.00 in0.0 mm 0.00 in0.0 mm 0.00 in0.0 mm
09:10 AM 60.7°F15.9°C 43.5°F6.4°C 53% 3.0 mph N4.8 kmh N 6.0 mph9.7 kmh 30.09 in1019.0 mb 0.00 in0.0 mm 0.00 in0.0 mm 0.00 in0.0 mm
09:15 AM 60.9°F16.1°C 44.6°F7.0°C 55% 3.0 mph NNE4.8 kmh NNE 7.0 mph11.3 kmh 30.09 in1019.0 mb 0.00 in0.0 mm 0.00 in0.0 mm 0.00 in0.0 mm
09:20 AM 61.1°F16.2°C 45.3°F7.4°C 56% 4.0 mph NNE6.4 kmh NNE 9.0 mph14.5 kmh 30.09 in1019.0 mb 0.00 in0.0 mm 0.00 in0.0 mm 0.00 in0.0 mm
09:25 AM 61.3°F16.3°C 46.8°F8.2°C 59% 4.0 mph N6.4 kmh N 10.0 mph16.1 kmh 30.09 in1019.0 mb 0.00 in0.0 mm 0.00 in0.0 mm 0.00 in0.0 mm
09:30 AM 61.7°F16.5°C 45.4°F7.4°C 55% 4.0 mph NNE6.4 kmh NNE 10.0 mph16.1 kmh 30.09 in1019.0 mb 0.00 in0.0 mm 0.00 in0.0 mm 0.00 in0.0 mm
09:35 AM 62.3°F16.8°C 47.8°F8.8°C 59% 3.0 mph NNE4.8 kmh NNE 9.0 mph14.5 kmh 30.10 in1019.3 mb 0.00 in0.0 mm 0.00 in0.0 mm 0.00 in0.0 mm
09:40 AM 62.7°F17.1°C 50.8°F10.4°C 65% 4.0 mph NNE6.4 kmh NNE 11.0 mph17.7 kmh 30.10 in1019.3 mb 0.00 in0.0 mm 0.00 in0.0 mm 0.00 in0.0 mm
09:45 AM 62.8°F17.1°C 50.4°F10.2°C 64% 5.0 mph NNE8.0 kmh NNE 11.0 mph17.7 kmh 30.10 in1019.3 mb 0.00 in0.0 mm 0.00 in0.0 mm 0.00 in0.0 mm
09:50 AM 62.9°F17.2°C 51.0°F10.6°C 65% 5.0 mph N8.0 kmh N 10.0 mph16.1 kmh 30.10 in1019.3 mb 0.00 in0.0 mm 0.00 in0.0 mm 0.00 in0.0 mm
09:55 AM 62.9°F17.2°C 51.4°F10.8°C 66% 5.0 mph NNE8.0 kmh NNE 10.0 mph16.1 kmh 30.10 in1019.3 mb 0.00 in0.0 mm 0.00 in0.0 mm 0.00 in0.0 mm
10:00 AM 62.9°F17.2°C 51.0°F10.6°C 65% 5.0 mph NNE8.0 kmh NNE 10.0 mph16.1 kmh 30.10 in1019.3 mb 0.00 in0.0 mm 0.00 in0.0 mm 0.00 in0.0 mm
10:05 AM 63.0°F17.2°C 52.3°F11.3°C 68% 4.0 mph NNE6.4 kmh NNE 10.0 mph16.1 kmh 30.11 in1019.6 mb 0.00 in0.0 mm 0.00 in0.0 mm 0.00 in0.0 mm
10:10 AM 63.2°F17.3°C 52.1°F11.2°C 67% 4.0 mph NNE6.4 kmh NNE 10.0 mph16.1 kmh 30.11 in1019.6 mb 0.00 in0.0 mm 0.00 in0.0 mm 0.00 in0.0 mm
10:15 AM 63.7°F17.6°C 52.5°F11.4°C 67% 4.0 mph NNE6.4 kmh NNE 9.0 mph14.5 kmh 30.11 in1019.6 mb 0.00 in0.0 mm 0.00 in0.0 mm 0.00 in0.0 mm
10:20 AM 64.0°F17.8°C 53.6°F12.0°C 69% 4.0 mph NE6.4 kmh NE 8.0 mph12.9 kmh 30.11 in1019.6 mb 0.00 in0.0 mm 0.00 in0.0 mm 0.00 in0.0 mm
10:25 AM 64.1°F17.8°C 53.7°F12.1°C 69% 5.0 mph NNE8.0 kmh NNE 11.0 mph17.7 kmh 30.11 in1019.6 mb 0.00 in0.0 mm 0.00 in0.0 mm 0.00 in0.0 mm
10:30 AM 64.1°F17.8°C 54.1°F12.3°C 70% 5.0 mph NE8.0 kmh NE 11.0 mph17.7 kmh 30.11 in1019.6 mb 0.00 in0.0 mm 0.00 in0.0 mm 0.00 in0.0 mm
10:35 AM 64.4°F18.0°C 54.4°F12.4°C 70% 5.0 mph NNE8.0 kmh NNE 10.0 mph16.1 kmh 30.11 in1019.6 mb 0.00 in0.0 mm 0.00 in0.0 mm 0.00 in0.0 mm
10:40 AM 64.8°F18.2°C 54.4°F12.4°C 69% 4.0 mph NNE6.4 kmh NNE 8.0 mph12.9 kmh 30.11 in1019.6 mb 0.00 in0.0 mm 0.00 in0.0 mm 0.00 in0.0 mm
10:45 AM 65.2°F18.4°C 55.2°F12.9°C 70% 4.0 mph NNE6.4 kmh NNE 10.0 mph16.1 kmh 30.11 in1019.6 mb 0.00 in0.0 mm 0.00 in0.0 mm 0.00 in0.0 mm
10:50 AM 65.2°F18.4°C 55.2°F12.9°C 70% 5.0 mph NNE8.0 kmh NNE 10.0 mph16.1 kmh 30.12 in1020.0 mb 0.00 in0.0 mm 0.00 in0.0 mm 0.00 in0.0 mm
10:55 AM 65.3°F18.5°C 55.3°F12.9°C 70% 5.0 mph NE8.0 kmh NE 11.0 mph17.7 kmh 30.12 in1020.0 mb 0.00 in0.0 mm 0.00 in0.0 mm 0.00 in0.0 mm
11:00 AM 65.8°F18.8°C 55.7°F13.2°C 70% 5.0 mph NE8.0 kmh NE 11.0 mph17.7 kmh 30.12 in1020.0 mb 0.00 in0.0 mm 0.00 in0.0 mm 0.00 in0.0 mm
11:05 AM 66.3°F19.1°C 56.2°F13.4°C 70% 4.0 mph NNE6.4 kmh NNE 11.0 mph17.7 kmh 30.12 in1020.0 mb 0.00 in0.0 mm 0.00 in0.0 mm 0.00 in0.0 mm
11:10 AM 66.7°F19.3°C 56.6°F13.7°C 70% 4.0 mph NNE6.4 kmh NNE 12.0 mph19.3 kmh 30.12 in1020.0 mb 0.00 in0.0 mm 0.00 in0.0 mm 0.00 in0.0 mm
11:15 AM 66.7°F19.3°C 56.6°F13.7°C 70% 5.0 mph NNE8.0 kmh NNE 12.0 mph19.3 kmh 30.12 in1020.0 mb 0.00 in0.0 mm 0.00 in0.0 mm 0.00 in0.0 mm
11:20 AM 66.9°F19.4°C 56.8°F13.8°C 70% 5.0 mph NNE8.0 kmh NNE 9.0 mph14.5 kmh 30.12 in1020.0 mb 0.00 in0.0 mm 0.00 in0.0 mm 0.00 in0.0 mm
11:25 AM 67.3°F19.6°C 57.2°F14.0°C 70% 5.0 mph N8.0 kmh N 9.0 mph14.5 kmh 30.12 in1020.0 mb 0.00 in0.0 mm 0.00 in0.0 mm 0.00 in0.0 mm
11:30 AM 67.7°F19.8°C 57.2°F14.0°C 69% 5.0 mph NNE8.0 kmh NNE 9.0 mph14.5 kmh 30.12 in1020.0 mb 0.00 in0.0 mm 0.00 in0.0 mm 0.00 in0.0 mm
11:35 AM 68.3°F20.2°C 57.7°F14.3°C 69% 5.0 mph NNE8.0 kmh NNE 9.0 mph14.5 kmh 30.12 in1020.0 mb 0.00 in0.0 mm 0.00 in0.0 mm 0.00 in0.0 mm
11:40 AM 68.7°F20.4°C 57.7°F14.3°C 68% 5.0 mph NNE8.0 kmh NNE 9.0 mph14.5 kmh 30.12 in1020.0 mb 0.00 in0.0 mm 0.00 in0.0 mm 0.00 in0.0 mm
11:45 AM 68.8°F20.4°C 57.8°F14.3°C 68% 5.0 mph NNE8.0 kmh NNE 10.0 mph16.1 kmh 30.12 in1020.0 mb 0.00 in0.0 mm 0.00 in0.0 mm 0.00 in0.0 mm
11:50 AM 68.6°F20.3°C 57.6°F14.2°C 68% 5.0 mph NE8.0 kmh NE 10.0 mph16.1 kmh 30.12 in1020.0 mb 0.00 in0.0 mm 0.00 in0.0 mm 0.00 in0.0 mm
11:55 AM 68.7°F20.4°C 57.7°F14.3°C 68% 5.0 mph NNE8.0 kmh NNE 10.0 mph16.1 kmh 30.12 in1020.0 mb 0.00 in0.0 mm 0.00 in0.0 mm 0.00 in0.0 mm
12:00 PM 68.9°F20.5°C 57.9°F14.4°C 68% 5.0 mph NE8.0 kmh NE 9.0 mph14.5 kmh 30.12 in1020.0 mb 0.00 in0.0 mm 0.00 in0.0 mm 0.00 in0.0 mm
12:05 PM 69.0°F20.6°C 57.6°F14.2°C 67% 5.0 mph NE8.0 kmh NE 9.0 mph14.5 kmh 30.12 in1020.0 mb 0.00 in0.0 mm 0.00 in0.0 mm 0.00 in0.0 mm
12:10 PM 69.3°F20.7°C 58.3°F14.6°C 68% 5.0 mph NE8.0 kmh NE 8.0 mph12.9 kmh 30.12 in1020.0 mb 0.00 in0.0 mm 0.00 in0.0 mm 0.00 in0.0 mm
12:15 PM 69.6°F20.9°C 58.2°F14.6°C 67% 4.0 mph NE6.4 kmh NE 10.0 mph16.1 kmh 30.12 in1020.0 mb 0.00 in0.0 mm 0.00 in0.0 mm 0.00 in0.0 mm
12:20 PM 70.0°F21.1°C 58.5°F14.7°C 67% 5.0 mph NE8.0 kmh NE 10.0 mph16.1 kmh 30.12 in1020.0 mb 0.00 in0.0 mm 0.00 in0.0 mm 0.00 in0.0 mm
12:25 PM 70.3°F21.3°C 58.8°F14.9°C 67% 4.0 mph NE6.4 kmh NE 9.0 mph14.5 kmh 30.12 in1020.0 mb 0.00 in0.0 mm 0.00 in0.0 mm 0.00 in0.0 mm
12:30 PM 70.8°F21.6°C 58.9°F14.9°C 66% 4.0 mph NE6.4 kmh NE 9.0 mph14.5 kmh 30.12 in1020.0 mb 0.00 in0.0 mm 0.00 in0.0 mm 0.00 in0.0 mm
12:35 PM 71.0°F21.7°C 59.1°F15.1°C 66% 4.0 mph NE6.4 kmh NE 9.0 mph14.5 kmh 30.12 in1020.0 mb 0.00 in0.0 mm 0.00 in0.0 mm 0.00 in0.0 mm
12:40 PM 70.9°F21.6°C 59.4°F15.2°C 67% 4.0 mph NNE6.4 kmh NNE 8.0 mph12.9 kmh 30.12 in1020.0 mb 0.00 in0.0 mm 0.00 in0.0 mm 0.00 in0.0 mm
12:45 PM 70.8°F21.6°C 58.9°F14.9°C 66% 4.0 mph NE6.4 kmh NE 8.0 mph12.9 kmh 30.12 in1020.0 mb 0.00 in0.0 mm 0.00 in0.0 mm 0.00 in0.0 mm
12:50 PM 70.7°F21.5°C 58.8°F14.9°C 66% 3.0 mph NE4.8 kmh NE 7.0 mph11.3 kmh 30.12 in1020.0 mb 0.00 in0.0 mm 0.00 in0.0 mm 0.00 in0.0 mm
12:55 PM 70.7°F21.5°C 58.8°F14.9°C 66% 3.0 mph NE4.8 kmh NE 7.0 mph11.3 kmh 30.12 in1020.0 mb 0.00 in0.0 mm 0.00 in0.0 mm 0.00 in0.0 mm
01:00 PM 70.7°F21.5°C 58.8°F14.9°C 66% 3.0 mph NE4.8 kmh NE 7.0 mph11.3 kmh 30.12 in1020.0 mb 0.00 in0.0 mm 0.00 in0.0 mm 0.00 in0.0 mm
01:05 PM 70.5°F21.4°C 59.0°F15.0°C 67% 3.0 mph NNE4.8 kmh NNE 9.0 mph14.5 kmh 30.12 in1020.0 mb 0.00 in0.0 mm 0.00 in0.0 mm 0.00 in0.0 mm
01:10 PM 70.5°F21.4°C 59.0°F15.0°C 67% 4.0 mph NE6.4 kmh NE 9.0 mph14.5 kmh 30.11 in1019.6 mb 0.00 in0.0 mm 0.00 in0.0 mm 0.00 in0.0 mm
01:15 PM 70.6°F21.4°C 59.1°F15.1°C 67% 3.0 mph NE4.8 kmh NE 8.0 mph12.9 kmh 30.11 in1019.6 mb 0.00 in0.0 mm 0.00 in0.0 mm 0.00 in0.0 mm
01:20 PM 70.5°F21.4°C 59.0°F15.0°C 67% 4.0 mph NE6.4 kmh NE 8.0 mph12.9 kmh 30.11 in1019.6 mb 0.00 in0.0 mm 0.00 in0.0 mm 0.00 in0.0 mm
01:25 PM 70.4°F21.3°C 58.9°F14.9°C 67% 5.0 mph NE8.0 kmh NE 10.0 mph16.1 kmh 30.11 in1019.6 mb 0.00 in0.0 mm 0.00 in0.0 mm 0.00 in0.0 mm
01:30 PM 70.4°F21.3°C 58.9°F14.9°C 67% 5.0 mph NE8.0 kmh NE 10.0 mph16.1 kmh 30.11 in1019.6 mb 0.00 in0.0 mm 0.00 in0.0 mm 0.00 in0.0 mm
01:35 PM 70.6°F21.4°C 58.7°F14.8°C 66% 4.0 mph NE6.4 kmh NE 10.0 mph16.1 kmh 30.10 in1019.3 mb 0.00 in0.0 mm 0.00 in0.0 mm 0.00 in0.0 mm
01:40 PM 70.7°F21.5°C 58.8°F14.9°C 66% 4.0 mph NE6.4 kmh NE 10.0 mph16.1 kmh 30.10 in1019.3 mb 0.00 in0.0 mm 0.00 in0.0 mm 0.00 in0.0 mm
01:45 PM 70.9°F21.6°C 59.4°F15.2°C 67% 4.0 mph NE6.4 kmh NE 10.0 mph16.1 kmh 30.10 in1019.3 mb 0.00 in0.0 mm 0.00 in0.0 mm 0.00 in0.0 mm
01:50 PM 71.2°F21.8°C 59.3°F15.2°C 66% 5.0 mph NE8.0 kmh NE 12.0 mph19.3 kmh 30.10 in1019.3 mb 0.00 in0.0 mm 0.00 in0.0 mm 0.00 in0.0 mm
01:55 PM 71.2°F21.8°C 59.3°F15.2°C 66% 5.0 mph NE8.0 kmh NE 12.0 mph19.3 kmh 30.10 in1019.3 mb 0.00 in0.0 mm 0.00 in0.0 mm 0.00 in0.0 mm
02:00 PM 71.5°F21.9°C 59.5°F15.3°C 66% 4.0 mph NE6.4 kmh NE 10.0 mph16.1 kmh 30.10 in1019.3 mb 0.00 in0.0 mm 0.00 in0.0 mm 0.00 in0.0 mm
02:05 PM 71.7°F22.1°C 59.7°F15.4°C 66% 4.0 mph NNE6.4 kmh NNE 8.0 mph12.9 kmh 30.09 in1019.0 mb 0.00 in0.0 mm 0.00 in0.0 mm 0.00 in0.0 mm
02:10 PM 72.1°F22.3°C 59.7°F15.4°C 65% 4.0 mph NE6.4 kmh NE 9.0 mph14.5 kmh 30.08 in1018.6 mb 0.00 in0.0 mm 0.00 in0.0 mm 0.00 in0.0 mm
02:15 PM 72.4°F22.4°C 60.0°F15.6°C 65% 5.0 mph NE8.0 kmh NE 12.0 mph19.3 kmh 30.08 in1018.6 mb 0.00 in0.0 mm 0.00 in0.0 mm 0.00 in0.0 mm
02:20 PM 72.9°F22.7°C 60.4°F15.8°C 65% 5.0 mph NE8.0 kmh NE 12.0 mph19.3 kmh 30.07 in1018.3 mb 0.00 in0.0 mm 0.00 in0.0 mm 0.00 in0.0 mm
02:25 PM 73.0°F22.8°C 60.1°F15.6°C 64% 4.0 mph NNE6.4 kmh NNE 10.0 mph16.1 kmh 30.07 in1018.3 mb 0.00 in0.0 mm 0.00 in0.0 mm 0.00 in0.0 mm
02:30 PM 73.1°F22.8°C 60.6°F15.9°C 65% 5.0 mph NE8.0 kmh NE 10.0 mph16.1 kmh 30.07 in1018.3 mb 0.00 in0.0 mm 0.00 in0.0 mm 0.00 in0.0 mm
02:35 PM 73.3°F22.9°C 60.4°F15.8°C 64% 5.0 mph NE8.0 kmh NE 13.0 mph20.9 kmh 30.07 in1018.3 mb 0.00 in0.0 mm 0.00 in0.0 mm 0.00 in0.0 mm
02:40 PM 73.5°F23.1°C 60.1°F15.6°C 63% 5.0 mph NE8.0 kmh NE 13.0 mph20.9 kmh 30.07 in1018.3 mb 0.00 in0.0 mm 0.00 in0.0 mm 0.00 in0.0 mm
02:45 PM 73.3°F22.9°C 59.9°F15.5°C 63% 5.0 mph NNE8.0 kmh NNE 11.0 mph17.7 kmh 30.07 in1018.3 mb 0.00 in0.0 mm 0.00 in0.0 mm 0.00 in0.0 mm
02:50 PM 72.9°F22.7°C 60.0°F15.6°C 64% 6.0 mph NNE9.7 kmh NNE 11.0 mph17.7 kmh 30.06 in1017.9 mb 0.00 in0.0 mm 0.00 in0.0 mm 0.00 in0.0 mm
02:55 PM 72.4°F22.4°C 60.0°F15.6°C 65% 6.0 mph NE9.7 kmh NE 13.0 mph20.9 kmh 30.06 in1017.9 mb 0.00 in0.0 mm 0.00 in0.0 mm 0.00 in0.0 mm
03:00 PM 72.0°F22.2°C 59.6°F15.3°C 65% 6.0 mph NE9.7 kmh NE 13.0 mph20.9 kmh 30.06 in1017.9 mb 0.00 in0.0 mm 0.00 in0.0 mm 0.00 in0.0 mm
03:05 PM 71.4°F21.9°C 59.4°F15.2°C 66% 6.0 mph NE9.7 kmh NE 15.0 mph24.1 kmh 30.06 in1017.9 mb 0.00 in0.0 mm 0.00 in0.0 mm 0.00 in0.0 mm
03:10 PM 70.8°F21.6°C 59.3°F15.2°C 67% 6.0 mph NNE9.7 kmh NNE 15.0 mph24.1 kmh 30.06 in1017.9 mb 0.00 in0.0 mm 0.00 in0.0 mm 0.00 in0.0 mm
03:15 PM 70.8°F21.6°C 59.7°F15.4°C 68% 5.0 mph NNE8.0 kmh NNE 11.0 mph17.7 kmh 30.06 in1017.9 mb 0.00 in0.0 mm 0.00 in0.0 mm 0.00 in0.0 mm
03:20 PM 71.2°F21.8°C 60.1°F15.6°C 68% 5.0 mph NE8.0 kmh NE 10.0 mph16.1 kmh 30.06 in1017.9 mb 0.00 in0.0 mm 0.00 in0.0 mm 0.00 in0.0 mm
03:25 PM 71.3°F21.8°C 59.8°F15.4°C 67% 5.0 mph NE8.0 kmh NE 13.0 mph20.9 kmh 30.06 in1017.9 mb 0.00 in0.0 mm 0.00 in0.0 mm 0.00 in0.0 mm
03:30 PM 71.2°F21.8°C 59.7°F15.4°C 67% 6.0 mph NE9.7 kmh NE 13.0 mph20.9 kmh 30.06 in1017.9 mb 0.00 in0.0 mm 0.00 in0.0 mm 0.00 in0.0 mm
03:35 PM 71.0°F21.7°C 59.5°F15.3°C 67% 6.0 mph NNE9.7 kmh NNE 11.0 mph17.7 kmh 30.06 in1017.9 mb 0.00 in0.0 mm 0.00 in0.0 mm 0.00 in0.0 mm
03:40 PM 70.6°F21.4°C 59.1°F15.1°C 67% 6.0 mph NE9.7 kmh NE 11.0 mph17.7 kmh 30.06 in1017.9 mb 0.00 in0.0 mm 0.00 in0.0 mm 0.00 in0.0 mm
03:45 PM 70.0°F21.1°C 59.0°F15.0°C 68% 5.0 mph NE8.0 kmh NE 11.0 mph17.7 kmh 30.06 in1017.9 mb 0.00 in0.0 mm 0.00 in0.0 mm 0.00 in0.0 mm
03:50 PM 69.5°F20.8°C 58.5°F14.7°C 68% 6.0 mph NNE9.7 kmh NNE 12.0 mph19.3 kmh 30.06 in1017.9 mb 0.00 in0.0 mm 0.00 in0.0 mm 0.00 in0.0 mm
03:55 PM 69.1°F20.6°C 58.1°F14.5°C 68% 5.0 mph NE8.0 kmh NE 12.0 mph19.3 kmh 30.06 in1017.9 mb 0.00 in0.0 mm 0.00 in0.0 mm 0.00 in0.0 mm
04:00 PM 69.0°F20.6°C 58.4°F14.7°C 69% 5.0 mph NE8.0 kmh NE 10.0 mph16.1 kmh 30.06 in1017.9 mb 0.00 in0.0 mm 0.00 in0.0 mm 0.00 in0.0 mm
04:05 PM 68.8°F20.4°C 58.2°F14.6°C 69% 5.0 mph NE8.0 kmh NE 12.0 mph19.3 kmh 30.06 in1017.9 mb 0.00 in0.0 mm 0.00 in0.0 mm 0.00 in0.0 mm
04:10 PM 68.3°F20.2°C 57.7°F14.3°C 69% 5.0 mph NE8.0 kmh NE 12.0 mph19.3 kmh 30.06 in1017.9 mb 0.00 in0.0 mm 0.00 in0.0 mm 0.00 in0.0 mm
04:15 PM 68.2°F20.1°C 57.6°F14.2°C 69% 5.0 mph NE8.0 kmh NE 9.0 mph14.5 kmh 30.05 in1017.6 mb 0.00 in0.0 mm 0.00 in0.0 mm 0.00 in0.0 mm
04:20 PM 68.1°F20.1°C 57.5°F14.2°C 69% 5.0 mph NE8.0 kmh NE 9.0 mph14.5 kmh 30.05 in1017.6 mb 0.00 in0.0 mm 0.00 in0.0 mm 0.00 in0.0 mm
04:25 PM 68.0°F20.0°C 57.4°F14.1°C 69% 4.0 mph NE6.4 kmh NE 11.0 mph17.7 kmh 30.06 in1017.9 mb 0.00 in0.0 mm 0.00 in0.0 mm 0.00 in0.0 mm
04:30 PM 67.9°F19.9°C 57.4°F14.1°C 69% 4.0 mph NE6.4 kmh NE 11.0 mph17.7 kmh 30.06 in1017.9 mb 0.00 in0.0 mm 0.00 in0.0 mm 0.00 in0.0 mm
04:35 PM 67.9°F19.9°C 57.4°F14.1°C 69% 4.0 mph NE6.4 kmh NE 11.0 mph17.7 kmh 30.06 in1017.9 mb 0.00 in0.0 mm 0.00 in0.0 mm 0.00 in0.0 mm
04:40 PM 67.7°F19.8°C 57.2°F14.0°C 69% 4.0 mph NE6.4 kmh NE 11.0 mph17.7 kmh 30.07 in1018.3 mb 0.00 in0.0 mm 0.00 in0.0 mm 0.00 in0.0 mm
04:45 PM 67.4°F19.7°C 56.9°F13.8°C 69% 4.0 mph NE6.4 kmh NE 11.0 mph17.7 kmh 30.07 in1018.3 mb 0.00 in0.0 mm 0.00 in0.0 mm 0.00 in0.0 mm
04:50 PM 66.9°F19.4°C 56.4°F13.6°C 69% 5.0 mph NE8.0 kmh NE 10.0 mph16.1 kmh 30.06 in1017.9 mb 0.00 in0.0 mm 0.00 in0.0 mm 0.00 in0.0 mm
04:55 PM 66.6°F19.2°C 56.5°F13.6°C 70% 5.0 mph NE8.0 kmh NE 10.0 mph16.1 kmh 30.06 in1017.9 mb 0.00 in0.0 mm 0.00 in0.0 mm 0.00 in0.0 mm
05:00 PM 66.4°F19.1°C 56.3°F13.5°C 70% 4.0 mph NE6.4 kmh NE 10.0 mph16.1 kmh 30.06 in1017.9 mb 0.00 in0.0 mm 0.00 in0.0 mm 0.00 in0.0 mm
05:05 PM 66.2°F19.0°C 56.1°F13.4°C 70% 4.0 mph NE6.4 kmh NE 10.0 mph16.1 kmh 30.05 in1017.6 mb 0.00 in0.0 mm 0.00 in0.0 mm 0.00 in0.0 mm
05:10 PM 66.1°F18.9°C 56.0°F13.3°C 70% 3.0 mph NE4.8 kmh NE 8.0 mph12.9 kmh 30.05 in1017.6 mb 0.00 in0.0 mm 0.00 in0.0 mm 0.00 in0.0 mm
05:15 PM 66.1°F18.9°C 56.0°F13.3°C 70% 3.0 mph NE4.8 kmh NE 8.0 mph12.9 kmh 30.05 in1017.6 mb 0.00 in0.0 mm 0.00 in0.0 mm 0.00 in0.0 mm
05:20 PM 66.0°F18.9°C 55.9°F13.3°C 70% 3.0 mph ENE4.8 kmh ENE 7.0 mph11.3 kmh 30.05 in1017.6 mb 0.00 in0.0 mm 0.00 in0.0 mm 0.00 in0.0 mm
05:25 PM 65.9°F18.8°C 55.8°F13.2°C 70% 4.0 mph ENE6.4 kmh ENE 7.0 mph11.3 kmh 30.05 in1017.6 mb 0.00 in0.0 mm 0.00 in0.0 mm 0.00 in0.0 mm
05:30 PM 65.8°F18.8°C 55.7°F13.2°C 70% 4.0 mph ENE6.4 kmh ENE 9.0 mph14.5 kmh 30.05 in1017.6 mb 0.00 in0.0 mm 0.00 in0.0 mm 0.00 in0.0 mm
05:35 PM 65.7°F18.7°C 55.6°F13.1°C 70% 4.0 mph ENE6.4 kmh ENE 9.0 mph14.5 kmh 30.05 in1017.6 mb 0.00 in0.0 mm 0.00 in0.0 mm 0.00 in0.0 mm
05:40 PM 65.6°F18.7°C 55.9°F13.3°C 71% 3.0 mph ENE4.8 kmh ENE 9.0 mph14.5 kmh 30.05 in1017.6 mb 0.00 in0.0 mm 0.00 in0.0 mm 0.00 in0.0 mm
05:45 PM 65.5°F18.6°C 55.5°F13.1°C 70% 3.0 mph NE4.8 kmh NE 9.0 mph14.5 kmh 30.06 in1017.9 mb 0.00 in0.0 mm 0.00 in0.0 mm 0.00 in0.0 mm
05:50 PM 65.4°F18.6°C 55.4°F13.0°C 70% 4.0 mph ENE6.4 kmh ENE 9.0 mph14.5 kmh 30.06 in1017.9 mb 0.00 in0.0 mm 0.00 in0.0 mm 0.00 in0.0 mm
05:55 PM 65.3°F18.5°C 55.3°F12.9°C 70% 4.0 mph ENE6.4 kmh ENE 13.0 mph20.9 kmh 30.06 in1017.9 mb 0.00 in0.0 mm 0.00 in0.0 mm 0.00 in0.0 mm
06:00 PM 65.3°F18.5°C 55.3°F12.9°C 70% 4.0 mph ENE6.4 kmh ENE 13.0 mph20.9 kmh 30.06 in1017.9 mb 0.00 in0.0 mm 0.00 in0.0 mm 0.00 in0.0 mm
06:05 PM 65.2°F18.4°C 55.2°F12.9°C 70% 3.0 mph ENE4.8 kmh ENE 8.0 mph12.9 kmh 30.06 in1017.9 mb 0.00 in0.0 mm 0.00 in0.0 mm 0.00 in0.0 mm
06:10 PM 65.1°F18.4°C 55.1°F12.8°C 70% 3.0 mph ENE4.8 kmh ENE 8.0 mph12.9 kmh 30.06 in1017.9 mb 0.00 in0.0 mm 0.00 in0.0 mm 0.00 in0.0 mm
06:15 PM 65.0°F18.3°C 55.0°F12.8°C 70% 3.0 mph ENE4.8 kmh ENE 8.0 mph12.9 kmh 30.05 in1017.6 mb 0.00 in0.0 mm 0.00 in0.0 mm 0.00 in0.0 mm
06:20 PM 64.8°F18.2°C 54.8°F12.7°C 70% 4.0 mph ENE6.4 kmh ENE 11.0 mph17.7 kmh 30.05 in1017.6 mb 0.00 in0.0 mm 0.00 in0.0 mm 0.00 in0.0 mm
06:25 PM 64.6°F18.1°C 54.6°F12.6°C 70% 4.0 mph ENE6.4 kmh ENE 11.0 mph17.7 kmh 30.05 in1017.6 mb 0.00 in0.0 mm 0.00 in0.0 mm 0.00 in0.0 mm
06:30 PM 64.5°F18.1°C 54.5°F12.5°C 70% 4.0 mph NE6.4 kmh NE 9.0 mph14.5 kmh 30.05 in1017.6 mb 0.00 in0.0 mm 0.00 in0.0 mm 0.00 in0.0 mm
06:35 PM 64.5°F18.1°C 54.5°F12.5°C 70% 4.0 mph NE6.4 kmh NE 9.0 mph14.5 kmh 30.05 in1017.6 mb 0.00 in0.0 mm 0.00 in0.0 mm 0.00 in0.0 mm
06:40 PM 64.4°F18.0°C 54.4°F12.4°C 70% 4.0 mph NE6.4 kmh NE 8.0 mph12.9 kmh 30.05 in1017.6 mb 0.00 in0.0 mm 0.00 in0.0 mm 0.00 in0.0 mm
06:45 PM 64.2°F17.9°C 53.8°F12.1°C 69% 5.0 mph NE8.0 kmh NE 11.0 mph17.7 kmh 30.06 in1017.9 mb 0.00 in0.0 mm 0.00 in0.0 mm 0.00 in0.0 mm
06:50 PM 64.2°F17.9°C 53.8°F12.1°C 69% 4.0 mph ENE6.4 kmh ENE 11.0 mph17.7 kmh 30.06 in1017.9 mb 0.00 in0.0 mm 0.00 in0.0 mm 0.00 in0.0 mm
06:55 PM 64.1°F17.8°C 53.7°F12.1°C 69% 4.0 mph ENE6.4 kmh ENE 10.0 mph16.1 kmh 30.06 in1017.9 mb 0.00 in0.0 mm 0.00 in0.0 mm 0.00 in0.0 mm
07:00 PM 64.0°F17.8°C 53.6°F12.0°C 69% 4.0 mph ENE6.4 kmh ENE 9.0 mph14.5 kmh 30.07 in1018.3 mb 0.00 in0.0 mm 0.00 in0.0 mm 0.00 in0.0 mm
07:05 PM 63.9°F17.7°C 53.5°F11.9°C 69% 3.0 mph ENE4.8 kmh ENE 10.0 mph16.1 kmh 30.07 in1018.3 mb 0.00 in0.0 mm 0.00 in0.0 mm 0.00 in0.0 mm
07:10 PM 63.8°F17.7°C 53.4°F11.9°C 69% 5.0 mph ENE8.0 kmh ENE 10.0 mph16.1 kmh 30.07 in1018.3 mb 0.00 in0.0 mm 0.00 in0.0 mm 0.00 in0.0 mm
07:15 PM 63.7°F17.6°C 53.3°F11.8°C 69% 4.0 mph NE6.4 kmh NE 8.0 mph12.9 kmh 30.07 in1018.3 mb 0.00 in0.0 mm 0.00 in0.0 mm 0.00 in0.0 mm
07:20 PM 63.6°F17.6°C 53.2°F11.8°C 69% 4.0 mph NE6.4 kmh NE 8.0 mph12.9 kmh 30.08 in1018.6 mb 0.00 in0.0 mm 0.00 in0.0 mm 0.00 in0.0 mm
07:25 PM 63.5°F17.5°C 52.7°F11.5°C 68% 3.0 mph NE4.8 kmh NE 8.0 mph12.9 kmh 30.08 in1018.6 mb 0.00 in0.0 mm 0.00 in0.0 mm 0.00 in0.0 mm
07:30 PM 63.4°F17.4°C 52.7°F11.5°C 68% 3.0 mph ENE4.8 kmh ENE 10.0 mph16.1 kmh 30.08 in1018.6 mb 0.00 in0.0 mm 0.00 in0.0 mm 0.00 in0.0 mm
07:35 PM 63.4°F17.4°C 52.7°F11.5°C 68% 5.0 mph ENE8.0 kmh ENE 11.0 mph17.7 kmh 30.08 in1018.6 mb 0.00 in0.0 mm 0.00 in0.0 mm 0.00 in0.0 mm
07:40 PM 63.3°F17.4°C 52.2°F11.2°C 67% 4.0 mph ENE6.4 kmh ENE 11.0 mph17.7 kmh 30.08 in1018.6 mb 0.00 in0.0 mm 0.00 in0.0 mm 0.00 in0.0 mm
07:45 PM 63.1°F17.3°C 52.0°F11.1°C 67% 4.0 mph ENE6.4 kmh ENE 11.0 mph17.7 kmh 30.09 in1019.0 mb 0.00 in0.0 mm 0.00 in0.0 mm 0.00 in0.0 mm
07:50 PM 63.0°F17.2°C 51.9°F11.1°C 67% 4.0 mph NE6.4 kmh NE 11.0 mph17.7 kmh 30.10 in1019.3 mb 0.00 in0.0 mm 0.00 in0.0 mm 0.00 in0.0 mm
07:55 PM 63.0°F17.2°C 51.5°F10.8°C 66% 4.0 mph NE6.4 kmh NE 11.0 mph17.7 kmh 30.10 in1019.3 mb 0.00 in0.0 mm 0.00 in0.0 mm 0.00 in0.0 mm
08:00 PM 62.9°F17.2°C 51.4°F10.8°C 66% 4.0 mph NE6.4 kmh NE 11.0 mph17.7 kmh 30.10 in1019.3 mb 0.00 in0.0 mm 0.00 in0.0 mm 0.00 in0.0 mm
08:05 PM 62.8°F17.1°C 51.3°F10.7°C 66% 3.0 mph NE4.8 kmh NE 7.0 mph11.3 kmh 30.10 in1019.3 mb 0.00 in0.0 mm 0.00 in0.0 mm 0.00 in0.0 mm
08:10 PM 62.8°F17.1°C 51.3°F10.7°C 66% 2.0 mph NE3.2 kmh NE 6.0 mph9.7 kmh 30.11 in1019.6 mb 0.00 in0.0 mm 0.00 in0.0 mm 0.00 in0.0 mm
08:15 PM 62.7°F17.1°C 51.2°F10.7°C 66% 2.0 mph NE3.2 kmh NE 6.0 mph9.7 kmh 30.11 in1019.6 mb 0.00 in0.0 mm 0.00 in0.0 mm 0.00 in0.0 mm
08:20 PM 62.7°F17.1°C 50.8°F10.4°C 65% 3.0 mph NE4.8 kmh NE 7.0 mph11.3 kmh 30.10 in1019.3 mb 0.00 in0.0 mm 0.00 in0.0 mm 0.00 in0.0 mm
08:25 PM 62.6°F17.0°C 50.7°F10.4°C 65% 3.0 mph NE4.8 kmh NE 7.0 mph11.3 kmh 30.11 in1019.6 mb 0.00 in0.0 mm 0.00 in0.0 mm 0.00 in0.0 mm
08:30 PM 62.5°F16.9°C 49.7°F9.8°C 63% 3.0 mph ENE4.8 kmh ENE 6.0 mph9.7 kmh 30.11 in1019.6 mb 0.00 in0.0 mm 0.00 in0.0 mm 0.00 in0.0 mm
08:35 PM 62.4°F16.9°C 50.1°F10.1°C 64% 2.0 mph NE3.2 kmh NE 5.0 mph8.0 kmh 30.11 in1019.6 mb 0.00 in0.0 mm 0.00 in0.0 mm 0.00 in0.0 mm
08:40 PM 62.2°F16.8°C 49.9°F9.9°C 64% 2.0 mph ENE3.2 kmh ENE 5.0 mph8.0 kmh 30.11 in1019.6 mb 0.00 in0.0 mm 0.00 in0.0 mm 0.00 in0.0 mm
08:45 PM 62.1°F16.7°C 50.2°F10.1°C 65% 3.0 mph ENE4.8 kmh ENE 8.0 mph12.9 kmh 30.11 in1019.6 mb 0.00 in0.0 mm 0.00 in0.0 mm 0.00 in0.0 mm
08:50 PM 62.1°F16.7°C 50.6°F10.3°C 66% 3.0 mph NE4.8 kmh NE 8.0 mph12.9 kmh 30.11 in1019.6 mb 0.00 in0.0 mm 0.00 in0.0 mm 0.00 in0.0 mm
08:55 PM 62.1°F16.7°C 51.0°F10.6°C 67% 3.0 mph NE4.8 kmh NE 9.0 mph14.5 kmh 30.11 in1019.6 mb 0.00 in0.0 mm 0.00 in0.0 mm 0.00 in0.0 mm
09:00 PM 62.1°F16.7°C 51.0°F10.6°C 67% 3.0 mph NE4.8 kmh NE 9.0 mph14.5 kmh 30.11 in1019.6 mb 0.00 in0.0 mm 0.00 in0.0 mm 0.00 in0.0 mm
09:05 PM 62.2°F16.8°C 51.5°F10.8°C 68% 3.0 mph NE4.8 kmh NE 8.0 mph12.9 kmh 30.12 in1020.0 mb 0.00 in0.0 mm 0.00 in0.0 mm 0.00 in0.0 mm
09:10 PM 62.1°F16.7°C 51.4°F10.8°C 68% 3.0 mph NNE4.8 kmh NNE 8.0 mph12.9 kmh 30.12 in1020.0 mb 0.00 in0.0 mm 0.00 in0.0 mm 0.00 in0.0 mm
09:15 PM 62.1°F16.7°C 51.0°F10.6°C 67% 3.0 mph NNE4.8 kmh NNE 6.0 mph9.7 kmh 30.12 in1020.0 mb 0.00 in0.0 mm 0.00 in0.0 mm 0.00 in0.0 mm
09:20 PM 62.1°F16.7°C 51.4°F10.8°C 68% 3.0 mph NE4.8 kmh NE 7.0 mph11.3 kmh 30.11 in1019.6 mb 0.00 in0.0 mm 0.00 in0.0 mm 0.00 in0.0 mm
09:25 PM 62.0°F16.7°C 51.7°F10.9°C 69% 4.0 mph NE6.4 kmh NE 8.0 mph12.9 kmh 30.11 in1019.6 mb 0.00 in0.0 mm 0.00 in0.0 mm 0.00 in0.0 mm
09:30 PM 62.0°F16.7°C 51.7°F10.9°C 69% 4.0 mph NE6.4 kmh NE 8.0 mph12.9 kmh 30.11 in1019.6 mb 0.00 in0.0 mm 0.00 in0.0 mm 0.00 in0.0 mm
09:35 PM 61.9°F16.6°C 51.2°F10.7°C 68% 3.0 mph NE4.8 kmh NE 8.0 mph12.9 kmh 30.11 in1019.6 mb 0.00 in0.0 mm 0.00 in0.0 mm 0.00 in0.0 mm
09:40 PM 61.8°F16.6°C 51.5°F10.8°C 69% 3.0 mph NE4.8 kmh NE 9.0 mph14.5 kmh 30.11 in1019.6 mb 0.00 in0.0 mm 0.00 in0.0 mm 0.00 in0.0 mm
09:45 PM 61.8°F16.6°C 51.5°F10.8°C 69% 4.0 mph NE6.4 kmh NE 9.0 mph14.5 kmh 30.11 in1019.6 mb 0.00 in0.0 mm 0.00 in0.0 mm 0.00 in0.0 mm
09:50 PM 61.8°F16.6°C 51.5°F10.8°C 69% 4.0 mph NE6.4 kmh NE 9.0 mph14.5 kmh 30.11 in1019.6 mb 0.00 in0.0 mm 0.00 in0.0 mm 0.00 in0.0 mm
09:55 PM 61.7°F16.5°C 51.8°F11.0°C 70% 4.0 mph NE6.4 kmh NE 9.0 mph14.5 kmh 30.12 in1020.0 mb 0.00 in0.0 mm 0.00 in0.0 mm 0.00 in0.0 mm
10:00 PM 61.8°F16.6°C 51.9°F11.1°C 70% 3.0 mph NNE4.8 kmh NNE 8.0 mph12.9 kmh 30.12 in1020.0 mb 0.00 in0.0 mm 0.00 in0.0 mm 0.00 in0.0 mm
10:05 PM 61.8°F16.6°C 51.9°F11.1°C 70% 4.0 mph NE6.4 kmh NE 10.0 mph16.1 kmh 30.12 in1020.0 mb 0.00 in0.0 mm 0.00 in0.0 mm 0.00 in0.0 mm
10:10 PM 61.7°F16.5°C 52.2°F11.2°C 71% 5.0 mph NNE8.0 kmh NNE 13.0 mph20.9 kmh 30.12 in1020.0 mb 0.00 in0.0 mm 0.00 in0.0 mm 0.00 in0.0 mm
10:15 PM 61.8°F16.6°C 52.3°F11.3°C 71% 6.0 mph NE9.7 kmh NE 13.0 mph20.9 kmh 30.12 in1020.0 mb 0.00 in0.0 mm 0.00 in0.0 mm 0.00 in0.0 mm
10:20 PM 61.8°F16.6°C 52.3°F11.3°C 71% 5.0 mph NE8.0 kmh NE 11.0 mph17.7 kmh 30.12 in1020.0 mb 0.00 in0.0 mm 0.00 in0.0 mm 0.00 in0.0 mm
10:25 PM 61.8°F16.6°C 52.3°F11.3°C 71% 4.0 mph NE6.4 kmh NE 8.0 mph12.9 kmh 30.13 in1020.3 mb 0.00 in0.0 mm 0.00 in0.0 mm 0.00 in0.0 mm
10:30 PM 61.8°F16.6°C 52.3°F11.3°C 71% 3.0 mph NNE4.8 kmh NNE 6.0 mph9.7 kmh 30.13 in1020.3 mb 0.00 in0.0 mm 0.00 in0.0 mm 0.00 in0.0 mm
10:35 PM 61.8°F16.6°C 52.3°F11.3°C 71% 2.0 mph NE3.2 kmh NE 5.0 mph8.0 kmh 30.13 in1020.3 mb 0.00 in0.0 mm 0.00 in0.0 mm 0.00 in0.0 mm
10:40 PM 61.8°F16.6°C 52.3°F11.3°C 71% 3.0 mph NNE4.8 kmh NNE 5.0 mph8.0 kmh 30.14 in1020.7 mb 0.00 in0.0 mm 0.00 in0.0 mm 0.00 in0.0 mm
10:45 PM 61.8°F16.6°C 52.3°F11.3°C 71% 3.0 mph NE4.8 kmh NE 6.0 mph9.7 kmh 30.14 in1020.7 mb 0.00 in0.0 mm 0.00 in0.0 mm 0.00 in0.0 mm
10:50 PM 61.8°F16.6°C 52.3°F11.3°C 71% 3.0 mph NE4.8 kmh NE 7.0 mph11.3 kmh 30.14 in1020.7 mb 0.00 in0.0 mm 0.00 in0.0 mm 0.00 in0.0 mm
10:55 PM 61.8°F16.6°C 52.3°F11.3°C 71% 3.0 mph NNE4.8 kmh NNE 7.0 mph11.3 kmh 30.14 in1020.7 mb 0.00 in0.0 mm 0.00 in0.0 mm 0.00 in0.0 mm
11:00 PM 61.7°F16.5°C 52.2°F11.2°C 71% 3.0 mph N4.8 kmh N 6.0 mph9.7 kmh 30.14 in1020.7 mb 0.00 in0.0 mm 0.00 in0.0 mm 0.00 in0.0 mm
11:05 PM 61.4°F16.3°C 51.9°F11.1°C 71% 3.0 mph N4.8 kmh N 6.0 mph9.7 kmh 30.14 in1020.7 mb 0.00 in0.0 mm 0.00 in0.0 mm 0.00 in0.0 mm
11:10 PM 61.2°F16.2°C 50.9°F10.5°C 69% 3.0 mph N4.8 kmh N 6.0 mph9.7 kmh 30.15 in1021.0 mb 0.00 in0.0 mm 0.00 in0.0 mm 0.00 in0.0 mm
11:15 PM 60.9°F16.1°C 51.0°F10.6°C 70% 3.0 mph N4.8 kmh N 10.0 mph16.1 kmh 30.15 in1021.0 mb 0.00 in0.0 mm 0.00 in0.0 mm 0.00 in0.0 mm
11:20 PM 60.4°F15.8°C 51.0°F10.6°C 71% 4.0 mph N6.4 kmh N 10.0 mph16.1 kmh 30.15 in1021.0 mb 0.00 in0.0 mm 0.00 in0.0 mm 0.00 in0.0 mm
11:25 PM 60.0°F15.6°C 50.6°F10.3°C 71% 4.0 mph N6.4 kmh N 9.0 mph14.5 kmh 30.14 in1020.7 mb 0.00 in0.0 mm 0.00 in0.0 mm 0.00 in0.0 mm
11:30 PM 59.6°F15.3°C 50.2°F10.1°C 71% 4.0 mph N6.4 kmh N 9.0 mph14.5 kmh 30.14 in1020.7 mb 0.00 in0.0 mm 0.00 in0.0 mm 0.00 in0.0 mm
11:35 PM 59.3°F15.2°C 49.9°F9.9°C 71% 4.0 mph N6.4 kmh N 8.0 mph12.9 kmh 30.14 in1020.7 mb 0.00 in0.0 mm 0.00 in0.0 mm 0.00 in0.0 mm
11:40 PM 59.1°F15.1°C 49.7°F9.8°C 71% 3.0 mph N4.8 kmh N 7.0 mph11.3 kmh 30.14 in1020.7 mb 0.00 in0.0 mm 0.00 in0.0 mm 0.00 in0.0 mm
11:45 PM 58.9°F14.9°C 49.5°F9.7°C 71% 3.0 mph N4.8 kmh N 6.0 mph9.7 kmh 30.14 in1020.7 mb 0.00 in0.0 mm 0.00 in0.0 mm 0.00 in0.0 mm
11:50 PM 58.8°F14.9°C 49.4°F9.7°C 71% 3.0 mph N4.8 kmh N 7.0 mph11.3 kmh 30.14 in1020.7 mb 0.00 in0.0 mm 0.00 in0.0 mm 0.00 in0.0 mm
11:55 PM 58.7°F14.8°C 49.3°F9.6°C 71% 3.0 mph N4.8 kmh N 7.0 mph11.3 kmh 30.14 in1020.7 mb 0.00 in0.0 mm 0.00 in0.0 mm 0.00 in0.0 mm